Cape Lisburne LRRS Airport Cape Lisburne US
ICAO: PALU
IATA:
Category: Medium
Scheduled Services:

Elevation: 16 ft
TransAlt. 18000 ft.

Airport Communications:
ANCHORAGE CNTR:119.65
KOTZEBUE RDO:122.3
CTAF/UNICOM:126.2

PALU Zoom In..

If you have problems with the map follow the link
https://www.worldairports.se/pages/airport.php?
ICAO=PALU

Runways:

(A) RW 08 length 4805 ft width 135 ft
---- / hdg 84

(B) RW 26 length 4805 ft width 135 ft
---- / hdg 264

Location; PALU
Day. 08 / Time. 18.55 Zulu
* Altimeter: 29.46
* Temperature: -10° c. -14°f.
* Wind from: 100° Speed 06 kn.
Dewpoint: -11° c.
Visibility: 10 Statute Miles.
Clouds: Overcast 2400 ft.
Conditions: Light Snow.

PALU 081855Z AUTO 10006KT 10SM -SN OVC024 M10/M11 A2946 RMK AO2 SNB1755 SLP976 P0000 T11041114


Wind From 100°
Speed 06 kn.

 
 
jpsmedia worldairports.se 2019   terms of use